Time;durP1;ratioP1;P1;durP2;ratioP2;P2;SDS_P1;SDS_P2;PMS_P1;PMS_P2;Temp;Humidity;BMP_temperature;BMP_pressure;BME280_temperature;BME280_humidity;BME280_pressure;Samples;Min_cycle;Max_cycle;Signal;HPM_P1;HPM_P2
2021/10/05 00:00:32;;;;;;;;;1.25;1.25;;;;;16.37;90.63;100415.84;5036108;28;45756;-84
2021/10/05 00:02:58;;;;;;;;;1.50;1.50;;;;;16.32;90.42;100404.91;5035755;28;45534;-84
2021/10/05 00:08:45;;;;;;;;;3.00;2.00;;;;;16.23;90.37;100389.13;5039692;28;45904;-82
2021/10/05 00:11:10;;;;;;;;;2.25;2.25;;;;;16.27;90.75;100391.28;5042897;28;45507;-83
2021/10/05 00:13:36;;;;;;;;;1.00;1.00;;;;;16.17;90.67;100376.50;5039742;28;45545;-84
2021/10/05 00:16:02;;;;;;;;;2.25;2.25;;;;;16.12;90.53;100366.38;5035895;28;45619;-85
2021/10/05 00:18:27;;;;;;;;;3.00;1.75;;;;;16.15;90.77;100373.16;5035929;28;45461;-86
2021/10/05 00:20:53;;;;;;;;;2.50;1.25;;;;;16.22;90.69;100387.44;5036218;28;45638;-85
2021/10/05 00:23:18;;;;;;;;;1.25;1.25;;;;;16.09;90.68;100357.91;5035593;28;45482;-85
2021/10/05 00:25:44;;;;;;;;;1.75;1.00;;;;;15.92;90.48;100341.88;5036264;28;46298;-85
2021/10/05 00:28:09;;;;;;;;;3.25;1.00;;;;;16.16;90.59;100380.09;5035825;28;45685;-84
2021/10/05 00:30:34;;;;;;;;;3.00;2.00;;;;;15.90;90.51;100345.66;5036406;28;45567;-87
2021/10/05 00:33:00;;;;;;;;;1.25;1.25;;;;;15.75;90.93;100318.09;5037077;28;45740;-82
2021/10/05 00:38:47;;;;;;;;;1.00;1.00;;;;;16.06;90.99;100376.72;5041504;28;45605;-84
2021/10/05 00:41:13;;;;;;;;;1.25;1.25;;;;;16.04;90.51;100366.28;5045421;28;45407;-86
2021/10/05 00:43:38;;;;;;;;;2.00;1.00;;;;;15.94;90.62;100358.44;5043278;28;45699;-85
2021/10/05 00:46:04;;;;;;;;;1.25;1.25;;;;;16.01;90.69;100366.59;5044655;28;45623;-86
2021/10/05 00:48:30;;;;;;;;;1.75;1.00;;;;;15.91;90.78;100347.34;5042852;28;45757;-85
2021/10/05 00:50:55;;;;;;;;;2.75;1.75;;;;;15.89;90.82;100347.47;5022577;28;45806;-86
2021/10/05 00:53:21;;;;;;;;;1.00;1.00;;;;;15.66;90.85;100300.50;5040253;28;45522;-85
2021/10/05 00:55:46;;;;;;;;;1.00;0.75;;;;;15.78;90.73;100328.34;5037912;28;45650;-86
2021/10/05 00:58:12;;;;;;;;;1.00;1.00;;;;;15.63;90.77;100309.56;5035792;28;45656;-85
2021/10/05 01:00:37;;;;;;;;;2.25;1.00;;;;;15.79;90.61;100337.94;5035735;28;45612;-85
2021/10/05 01:03:04;;;;;;;;;1.00;1.00;;;;;15.75;90.62;100331.31;5035308;28;46401;-85
2021/10/05 01:08:51;;;;;;;;;1.00;1.00;;;;;15.66;90.90;100313.69;5035229;28;45716;-86
2021/10/05 01:11:16;;;;;;;;;1.00;1.00;;;;;15.68;90.92;100317.03;5041797;28;45617;-83
2021/10/05 01:13:42;;;;;;;;;1.25;1.00;;;;;15.65;90.76;100317.34;5046027;28;46828;-82
2021/10/05 01:16:07;;;;;;;;;0.50;0.00;;;;;15.45;90.57;100279.59;5041437;28;46209;-81
2021/10/05 01:18:33;;;;;;;;;1.00;1.00;;;;;15.69;90.89;100316.88;5036086;28;45636;-82
2021/10/05 01:24:21;;;;;;;;;1.25;1.00;;;;;15.64;90.95;100308.59;5034876;28;45917;-86
2021/10/05 01:26:48;;;;;;;;;1.50;1.00;;;;;15.57;90.58;100283.75;5034948;28;46306;-84
2021/10/05 01:29:16;;;;;;;;;1.00;1.00;;;;;15.50;90.80;100272.91;5034751;28;45665;-85
2021/10/05 01:31:45;;;;;;;;;2.00;1.00;;;;;15.48;90.70;100274.03;5034811;28;45800;-85
2021/10/05 01:34:11;;;;;;;;;1.00;1.00;;;;;15.49;90.85;100267.78;5034995;28;45727;-86
2021/10/05 01:36:37;;;;;;;;;1.25;1.00;;;;;15.40;90.82;100256.28;5035009;28;46151;-84
2021/10/05 01:39:29;;;;;;;;;2.00;1.50;;;;;15.53;90.85;100275.28;5034838;28;45762;-86
2021/10/05 01:41:58;;;;;;;;;1.25;0.50;;;;;15.52;90.85;100273.63;5035087;28;45584;-82
2021/10/05 01:44:23;;;;;;;;;1.25;1.25;;;;;15.50;90.87;100272.91;5017074;28;48588;-85
2021/10/05 01:46:50;;;;;;;;;0.75;0.50;;;;;15.44;90.84;100257.66;5034991;28;46376;-83
2021/10/05 01:49:18;;;;;;;;;3.00;2.00;;;;;15.44;91.46;100265.56;5035295;28;45500;-83
2021/10/05 01:51:44;;;;;;;;;1.00;1.00;;;;;15.42;90.96;100259.63;5034712;28;45310;-83
2021/10/05 01:54:10;;;;;;;;;1.25;1.00;;;;;15.39;90.72;100245.88;5034567;28;46830;-84
2021/10/05 01:56:36;;;;;;;;;0.00;0.00;;;;;15.33;91.08;100239.38;5035321;28;47077;-86
2021/10/05 01:59:02;;;;;;;;;1.00;0.00;;;;;15.37;90.85;100235.50;5036498;28;46344;-83
2021/10/05 02:01:27;;;;;;;;;1.00;1.00;;;;;15.36;90.91;100233.00;5027536;28;46020;-83
2021/10/05 02:03:53;;;;;;;;;1.00;1.00;;;;;15.13;91.09;100208.81;5040689;28;47207;-84
2021/10/05 02:06:18;;;;;;;;;2.75;1.00;;;;;15.25;90.87;100223.47;5039123;28;45599;-83
2021/10/05 02:08:44;;;;;;;;;1.00;0.75;;;;;15.18;90.76;100203.09;5029435;28;45961;-84
2021/10/05 02:11:09;;;;;;;;;1.00;0.00;;;;;15.07;90.96;100183.00;5051402;28;44928;-85
2021/10/05 02:13:35;;;;;;;;;1.00;1.00;;;;;15.25;90.98;100196.25;5052973;28;45465;-86
2021/10/05 02:16:01;;;;;;;;;3.00;3.00;;;;;15.30;91.02;100201.91;5054637;28;45286;-84
2021/10/05 02:18:27;;;;;;;;;1.00;1.00;;;;;15.24;90.87;100189.31;5037216;28;45542;-84
2021/10/05 02:26:46;;;;;;;;;2.25;1.75;;;;;15.21;90.81;100182.53;5040044;28;45759;-85
2021/10/05 02:29:12;;;;;;;;;1.75;1.00;;;;;15.25;90.86;100188.31;5022479;28;45682;-86
2021/10/05 02:31:38;;;;;;;;;1.75;1.00;;;;;15.14;91.04;100165.63;5040573;28;45722;-86
2021/10/05 02:34:04;;;;;;;;;1.00;1.00;;;;;15.03;91.01;100145.56;5043679;28;45621;-85
2021/10/05 02:36:30;;;;;;;;;1.25;0.75;;;;;15.15;91.01;100164.66;5042147;28;45521;-85
2021/10/05 02:38:55;;;;;;;;;2.00;1.00;;;;;15.09;90.95;100139.69;5046029;28;45444;-86
2021/10/05 02:41:21;;;;;;;;;1.00;0.00;;;;;15.17;90.74;100151.31;5041645;28;45776;-86
2021/10/05 02:43:46;;;;;;;;;0.75;0.75;;;;;15.15;90.85;100156.72;5041342;28;45587;-84
2021/10/05 02:46:12;;;;;;;;;0.25;0.25;;;;;15.01;90.82;100122.94;5022271;28;46993;-84
2021/10/05 02:48:37;;;;;;;;;0.50;0.00;;;;;14.86;90.64;100088.31;5021173;28;45676;-84
2021/10/05 02:54:25;;;;;;;;;2.00;1.25;;;;;14.81;91.07;100063.38;5039316;28;46098;-85
2021/10/05 02:56:51;;;;;;;;;0.75;0.00;;;;;15.10;90.78;100117.59;5042055;28;45539;-85
2021/10/05 02:59:16;;;;;;;;;1.00;1.00;;;;;14.98;91.14;100091.59;5042294;28;45590;-86
2021/10/05 03:01:43;;;;;;;;;0.75;0.75;;;;;15.07;90.78;100102.06;5042239;28;45454;-86
2021/10/05 03:04:08;;;;;;;;;0.75;0.25;;;;;15.01;90.92;100093.91;5041110;28;45825;-83
2021/10/05 03:06:34;;;;;;;;;1.00;0.00;;;;;15.05;90.61;100101.41;5037600;28;46254;-86
2021/10/05 03:08:59;;;;;;;;;0.00;0.00;;;;;15.00;90.86;100097.53;5037102;28;45517;-84
2021/10/05 03:11:25;;;;;;;;;1.75;1.25;;;;;14.86;90.86;100085.69;5037498;28;45582;-83
2021/10/05 03:13:50;;;;;;;;;1.75;1.00;;;;;15.01;91.27;100101.81;5038262;28;46716;-83
2021/10/05 03:16:15;;;;;;;;;0.00;0.00;;;;;14.99;90.80;100103.78;5041905;28;45669;-82
2021/10/05 03:18:42;;;;;;;;;1.00;0.25;;;;;14.97;91.00;100090.75;5044720;28;45667;-83
2021/10/05 03:24:29;;;;;;;;;0.75;0.75;;;;;14.93;91.09;100072.75;5042713;28;45541;-82
2021/10/05 03:26:55;;;;;;;;;0.00;0.00;;;;;14.86;90.93;100059.31;5041331;28;45639;-79
2021/10/05 03:29:20;;;;;;;;;1.75;1.00;;;;;14.92;90.98;100066.63;5038090;28;45616;-82
2021/10/05 03:31:46;;;;;;;;;0.50;0.50;;;;;14.81;90.94;100045.75;5036739;28;45654;-84
2021/10/05 03:34:11;;;;;;;;;2.00;1.00;;;;;14.93;90.86;100055.09;5037366;28;46781;-84
2021/10/05 03:36:37;;;;;;;;;1.50;0.50;;;;;14.87;90.90;100037.25;5043171;28;46449;-83
2021/10/05 03:39:02;;;;;;;;;1.75;1.50;;;;;14.74;90.90;99997.22;5029684;28;45746;-83
2021/10/05 03:41:30;;;;;;;;;1.75;0.50;;;;;14.78;90.81;100005.66;5046473;28;45667;-83
2021/10/05 03:43:56;;;;;;;;;1.00;0.00;;;;;14.90;91.16;100025.56;5042161;28;45724;-85
2021/10/05 03:46:23;;;;;;;;;2.00;1.00;;;;;14.62;90.72;99969.44;5046884;28;45595;-83
2021/10/05 03:48:48;;;;;;;;;1.00;1.00;;;;;14.89;91.13;100016.81;5045818;28;45342;-84
2021/10/05 03:54:35;;;;;;;;;1.00;1.00;;;;;14.96;90.81;100027.56;5036275;28;45593;-82
2021/10/05 03:57:02;;;;;;;;;1.50;1.00;;;;;14.97;91.27;100024.78;5018570;28;48347;-82
2021/10/05 03:59:27;;;;;;;;;1.00;1.00;;;;;14.70;90.95;99972.13;5036377;28;45605;-84
2021/10/05 04:01:53;;;;;;;;;1.00;0.50;;;;;14.80;90.98;99987.88;5036699;28;45835;-81
2021/10/05 04:04:18;;;;;;;;;1.00;1.00;;;;;14.92;90.92;100008.59;5036342;28;45577;-84
2021/10/05 04:06:44;;;;;;;;;2.50;1.50;;;;;14.85;91.09;99989.06;5035948;28;45598;-85
2021/10/05 04:09:09;;;;;;;;;2.00;1.75;;;;;14.95;90.93;100007.47;5035855;28;45510;-83
2021/10/05 04:11:35;;;;;;;;;2.00;2.00;;;;;14.95;91.10;100008.28;5018005;28;45873;-83
2021/10/05 04:14:01;;;;;;;;;5.25;4.00;;;;;14.95;90.90;100000.38;5035697;28;45735;-83
2021/10/05 04:16:27;;;;;;;;;5.00;4.00;;;;;14.96;91.09;99998.56;5017577;28;47155;-85
2021/10/05 04:18:52;;;;;;;;;5.00;4.50;;;;;14.97;91.13;100002.88;5035593;28;45739;-83
2021/10/05 04:24:39;;;;;;;;;3.75;3.75;;;;;14.93;91.27;99983.06;5035031;28;45653;-81
2021/10/05 04:27:09;;;;;;;;;5.50;5.00;;;;;14.97;91.08;99971.22;5035492;28;45572;-85
2021/10/05 04:29:36;;;;;;;;;6.00;4.25;;;;;14.81;91.17;99952.59;5035567;28;45775;-81
2021/10/05 04:32:02;;;;;;;;;5.50;4.75;;;;;14.96;91.06;99974.81;5035446;28;45504;-82
2021/10/05 04:40:51;;;;;;;;;3.50;3.50;;;;;14.94;91.18;99968.88;5035533;28;45740;-84
2021/10/05 04:43:16;;;;;;;;;4.50;3.25;;;;;14.70;91.15;99925.50;5035763;28;45733;-81
2021/10/05 04:45:44;;;;;;;;;2.75;2.75;;;;;14.72;90.97;99913.97;5035553;28;46888;-82
2021/10/05 04:48:09;;;;;;;;;3.00;3.00;;;;;14.96;91.35;99961.63;5017572;28;48669;-82
2021/10/05 04:50:35;;;;;;;;;3.00;2.00;;;;;14.72;91.08;99917.44;5035923;28;45617;-85
2021/10/05 04:53:01;;;;;;;;;3.00;2.00;;;;;14.98;91.08;99951.75;5035825;28;45463;-83
2021/10/05 04:55:26;;;;;;;;;3.00;2.00;;;;;14.81;91.00;99918.31;5036221;28;46731;-82
2021/10/05 04:57:52;;;;;;;;;5.50;3.00;;;;;14.71;90.98;99889.41;5035441;28;45537;-85
2021/10/05 05:00:17;;;;;;;;;2.00;1.50;;;;;14.77;91.00;99890.63;5036328;28;45491;-83
2021/10/05 05:02:43;;;;;;;;;3.75;1.75;;;;;14.84;90.95;99881.13;5037551;28;45623;-86
2021/10/05 05:05:09;;;;;;;;;1.50;1.25;;;;;15.01;91.22;99917.97;5041513;28;45658;-86
2021/10/05 05:07:34;;;;;;;;;2.00;1.50;;;;;15.01;90.99;99920.63;5041910;28;46269;-89
2021/10/05 05:10:02;;;;;;;;;1.00;1.00;;;;;15.01;91.14;99909.25;5042584;28;45476;-84
2021/10/05 05:12:27;;;;;;;;;3.00;2.00;;;;;14.89;91.21;99897.31;5039271;28;45606;-83
2021/10/05 05:14:53;;;;;;;;;1.00;1.00;;;;;14.86;91.12;99889.69;5036138;28;45830;-88
2021/10/05 05:17:18;;;;;;;;;2.00;1.50;;;;;15.01;91.07;99904.78;5036605;28;45503;-88
2021/10/05 05:19:44;;;;;;;;;2.00;2.00;;;;;14.81;91.05;99873.50;5037481;28;45845;-86
2021/10/05 05:22:09;;;;;;;;;2.00;1.00;;;;;14.81;91.39;99857.66;5036458;28;45598;-85
2021/10/05 05:24:35;;;;;;;;;1.75;1.00;;;;;14.93;91.17;99880.19;5036513;28;45780;-89
2021/10/05 05:27:00;;;;;;;;;1.00;1.00;;;;;14.83;91.03;99855.72;5019729;28;47160;-88
2021/10/05 05:29:26;;;;;;;;;2.25;1.50;;;;;15.01;91.09;99883.69;5037944;28;45547;-88
2021/10/05 05:31:52;;;;;;;;;6.00;1.00;;;;;15.02;90.96;99872.16;5020795;28;45870;-80
2021/10/05 05:34:19;;;;;;;;;2.50;1.75;;;;;14.86;91.33;99839.56;5041301;28;45516;-85
2021/10/05 05:40:07;;;;;;;;;1.75;1.75;;;;;14.84;90.94;99845.03;5037876;28;45479;-85
2021/10/05 05:42:32;;;;;;;;;1.50;1.50;;;;;14.79;90.89;99830.66;5040212;28;45428;-82
2021/10/05 05:44:58;;;;;;;;;1.25;1.25;;;;;15.04;91.14;99869.38;5041901;28;45576;-81
2021/10/05 05:47:23;;;;;;;;;3.00;2.00;;;;;15.05;91.03;99863.94;5043996;28;45497;-81
2021/10/05 05:49:49;;;;;;;;;3.75;3.00;;;;;15.05;91.11;99858.66;5041566;28;45640;-80
2021/10/05 05:52:14;;;;;;;;;2.00;2.00;;;;;14.98;90.93;99849.72;5038080;28;45608;-79
2021/10/05 05:54:39;;;;;;;;;7.00;6.50;;;;;15.03;91.13;99854.53;5040501;28;46459;-80
2021/10/05 05:57:05;;;;;;;;;19.50;16.00;;;;;15.07;91.20;99846.13;5042458;28;45625;-81
2021/10/05 05:59:30;;;;;;;;;8.00;7.75;;;;;15.00;91.16;99824.03;5042452;28;45668;-80
2021/10/05 06:01:56;;;;;;;;;21.50;19.75;;;;;15.09;91.09;99841.53;5038654;28;45582;-78
2021/10/05 06:04:22;;;;;;;;;9.75;9.50;;;;;14.99;91.39;99816.25;5037007;28;46387;-79
2021/10/05 06:10:09;;;;;;;;;13.00;12.25;;;;;15.11;91.15;99839.56;5036957;28;45590;-78
2021/10/05 06:12:39;;;;;;;;;7.00;6.00;;;;;15.12;91.17;99835.09;5037266;28;45685;-79
2021/10/05 06:15:11;;;;;;;;;5.25;4.00;;;;;15.12;91.01;99833.28;5037129;28;46265;-78
2021/10/05 06:17:39;;;;;;;;;20.00;17.50;;;;;15.14;91.05;99838.44;5036909;28;46295;-77
2021/10/05 06:20:07;;;;;;;;;2.50;2.00;;;;;15.13;90.98;99823.56;5036750;28;45749;-76
2021/10/05 06:22:33;;;;;;;;;2.50;2.00;;;;;15.14;91.20;99812.03;5036866;28;45780;-78
2021/10/05 06:24:59;;;;;;;;;2.00;2.00;;;;;15.14;91.08;99798.84;5036715;28;45629;-78
2021/10/05 06:27:24;;;;;;;;;8.75;7.75;;;;;15.16;91.19;99796.88;5018188;28;46142;-79
2021/10/05 06:29:50;;;;;;;;;4.75;4.00;;;;;15.17;91.10;99795.88;5036640;28;45697;-78
2021/10/05 06:32:15;;;;;;;;;6.25;6.25;;;;;15.18;91.01;99791.44;5036898;28;45633;-78
2021/10/05 06:34:41;;;;;;;;;7.75;6.00;;;;;15.18;90.72;99786.97;5036511;28;46454;-77
2021/10/05 06:40:32;;;;;;;;;3.75;2.75;;;;;15.18;91.15;99794.91;5036640;28;45629;-79
2021/10/05 06:42:58;;;;;;;;;6.00;5.75;;;;;15.19;91.17;99793.09;5037214;28;45722;-83
2021/10/05 06:45:23;;;;;;;;;6.50;5.00;;;;;15.17;91.11;99787.97;5036786;28;46512;-77
2021/10/05 06:47:49;;;;;;;;;10.00;8.75;;;;;15.10;91.08;99792.25;5036252;28;45660;-82
2021/10/05 06:50:15;;;;;;;;;3.75;3.25;;;;;15.17;90.98;99792.44;5036597;28;45724;-79
2021/10/05 06:52:41;;;;;;;;;4.00;4.00;;;;;15.16;91.04;99780.22;5036499;28;45502;-77
2021/10/05 06:55:07;;;;;;;;;4.00;3.00;;;;;15.21;91.17;99799.06;5036078;28;45743;-81
2021/10/05 06:57:32;;;;;;;;;8.00;7.25;;;;;15.14;91.25;99777.75;5036323;28;46109;-78
2021/10/05 06:59:58;;;;;;;;;2.75;2.75;;;;;15.08;91.29;99768.66;5036209;28;45585;-79
2021/10/05 07:02:24;;;;;;;;;7.00;5.00;;;;;15.20;91.08;99781.56;5036029;28;45777;-78
2021/10/05 07:04:49;;;;;;;;;5.00;4.00;;;;;15.21;91.17;99791.13;5034678;28;45637;-77
2021/10/05 07:10:39;;;;;;;;;4.50;4.50;;;;;15.14;91.30;99764.53;5036039;28;45543;-78
2021/10/05 07:13:05;;;;;;;;;4.25;3.00;;;;;15.20;91.00;99779.75;5036375;28;45566;-77
2021/10/05 07:15:31;;;;;;;;;3.00;3.00;;;;;15.20;91.32;99765.72;5036095;28;45640;-78
2021/10/05 07:17:58;;;;;;;;;5.00;5.00;;;;;15.20;91.17;99757.81;5035864;28;45586;-77
2021/10/05 07:20:24;;;;;;;;;2.25;2.25;;;;;15.10;91.20;99739.47;5036068;28;45619;-78
2021/10/05 07:22:49;;;;;;;;;4.50;2.75;;;;;15.20;91.34;99765.72;5036258;28;45862;-77
2021/10/05 07:25:15;;;;;;;;;2.75;2.50;;;;;15.19;91.25;99753.50;5018002;28;46915;-77
2021/10/05 07:27:49;;;;;;;;;3.50;3.25;;;;;15.12;91.31;99730.41;5035832;28;45726;-79
2021/10/05 07:30:16;;;;;;;;;3.00;2.00;;;;;15.18;91.37;99741.28;5035572;28;45686;-77
2021/10/05 07:32:41;;;;;;;;;2.00;2.00;;;;;15.16;91.41;99730.09;5035841;28;45522;-78
2021/10/05 07:35:07;;;;;;;;;3.25;2.25;;;;;15.18;91.30;99734.22;5035641;28;45586;-78
2021/10/05 07:40:54;;;;;;;;;4.00;3.00;;;;;15.13;91.35;99710.13;5035322;28;45625;-78
2021/10/05 07:43:19;;;;;;;;;3.25;2.00;;;;;15.16;91.05;99716.91;5035810;28;45574;-77
2021/10/05 07:45:45;;;;;;;;;2.00;2.00;;;;;15.16;91.46;99712.47;5035553;28;46561;-77
2021/10/05 07:48:11;;;;;;;;;2.00;1.00;;;;;15.07;91.77;99694.91;5035376;28;45914;-78
2021/10/05 07:50:37;;;;;;;;;2.00;1.75;;;;;15.14;91.44;99688.03;5035158;28;45629;-76
2021/10/05 07:53:03;;;;;;;;;3.00;2.50;;;;;15.13;91.49;99689.00;5035407;28;45721;-78
2021/10/05 07:55:32;;;;;;;;;1.50;1.50;;;;;15.12;91.51;99685.53;5034990;28;45474;-76
2021/10/05 07:57:58;;;;;;;;;2.50;2.00;;;;;15.07;91.28;99671.19;5034697;28;47335;-76
2021/10/05 08:00:25;;;;;;;;;1.75;1.50;;;;;15.16;91.56;99669.41;5035391;28;45572;-78
2021/10/05 08:02:50;;;;;;;;;1.00;1.00;;;;;15.16;91.57;99670.25;5035862;28;45640;-78
2021/10/05 08:05:16;;;;;;;;;2.00;1.25;;;;;15.16;91.41;99678.16;5035387;28;45586;-77
2021/10/05 08:11:03;;;;;;;;;0.25;0.25;;;;;15.10;91.63;99669.06;5034798;28;45639;-76
2021/10/05 08:13:28;;;;;;;;;2.25;2.00;;;;;15.09;91.63;99674.50;5035396;28;45779;-78
2021/10/05 08:15:54;;;;;;;;;1.25;1.25;;;;;15.17;91.58;99687.69;5034710;28;45671;-77
2021/10/05 08:18:20;;;;;;;;;1.00;1.00;;;;;15.18;91.49;99680.59;5034859;28;46273;-78
2021/10/05 08:20:46;;;;;;;;;1.00;1.00;;;;;15.12;91.54;99680.28;5035220;28;45534;-78
2021/10/05 08:23:12;;;;;;;;;1.25;1.25;;;;;15.16;91.30;99672.03;5035299;28;45772;-78
2021/10/05 08:25:37;;;;;;;;;1.00;1.00;;;;;15.20;91.59;99686.56;5034822;28;45602;-76
2021/10/05 08:28:04;;;;;;;;;1.00;1.00;;;;;15.21;91.57;99673.22;5034453;28;46147;-78
2021/10/05 08:30:31;;;;;;;;;1.50;1.00;;;;;15.22;91.56;99674.88;5034876;28;45574;-77
2021/10/05 08:32:57;;;;;;;;;2.00;1.00;;;;;15.25;91.64;99671.06;5034698;28;45657;-77
2021/10/05 08:35:23;;;;;;;;;1.00;1.00;;;;;15.25;91.97;99660.50;5016586;28;48476;-77
2021/10/05 08:41:10;;;;;;;;;2.00;0.00;;;;;15.28;91.69;99662.81;5034608;28;45630;-78
2021/10/05 08:43:36;;;;;;;;;0.00;0.00;;;;;15.27;91.64;99646.19;5034943;28;45669;-78
2021/10/05 08:46:03;;;;;;;;;1.00;0.75;;;;;15.24;91.65;99641.22;5034650;28;46724;-78
2021/10/05 08:48:33;;;;;;;;;0.75;0.00;;;;;15.24;91.61;99637.75;5034336;28;45926;-78
2021/10/05 08:51:00;;;;;;;;;1.00;1.00;;;;;15.31;91.77;99651.94;5033958;28;45826;-78
2021/10/05 08:53:28;;;;;;;;;1.00;1.00;;;;;15.31;91.73;99655.41;5034566;28;45705;-78
2021/10/05 08:55:54;;;;;;;;;1.50;0.50;;;;;15.29;91.72;99646.81;5034507;28;45706;-78
2021/10/05 08:58:19;;;;;;;;;0.75;0.00;;;;;15.23;91.62;99630.81;5034444;28;45732;-78
2021/10/05 09:00:45;;;;;;;;;1.00;1.00;;;;;15.19;91.65;99658.53;5034176;28;45768;-77
2021/10/05 09:03:20;;;;;;;;;0.50;0.00;;;;;15.23;91.62;99704.69;5034381;28;45542;-78
2021/10/05 09:05:45;;;;;;;;;1.00;1.00;;;;;15.28;91.97;99763.94;5034241;28;46588;-77
2021/10/05 09:08:21;;;;;;;;;0.00;0.00;;;;;15.11;92.16;99770.94;5033806;28;45982;-76
2021/10/05 09:10:47;;;;;;;;;0.00;0.00;;;;;14.87;92.86;99786.69;5034054;28;45818;-78
2021/10/05 09:13:12;;;;;;;;;0.00;0.00;;;;;14.75;93.61;99756.28;5034698;28;45606;-78
2021/10/05 09:15:37;;;;;;;;;0.00;0.00;;;;;14.63;93.93;99789.97;5034370;28;45505;-80
2021/10/05 09:18:04;;;;;;;;;0.00;0.00;;;;;14.54;94.34;99787.47;5034039;28;45686;-79
2021/10/05 09:20:34;;;;;;;;;0.00;0.00;;;;;14.30;94.36;99744.09;5034060;28;45763;-79
2021/10/05 09:26:35;;;;;;;;;0.00;0.00;;;;;14.27;94.46;99772.56;5033839;28;45936;-77
2021/10/05 09:29:28;;;;;;;;;0.00;0.00;;;;;14.07;94.66;99737.69;5032984;28;45919;-77
2021/10/05 09:32:00;;;;;;;;;0.00;0.00;;;;;14.20;94.69;99767.06;5033880;28;45763;-78
2021/10/05 09:34:53;;;;;;;;;0.75;0.00;;;;;14.16;94.48;99764.91;5034109;28;45676;-76
2021/10/05 09:37:25;;;;;;;;;0.25;0.00;;;;;14.12;94.42;99774.94;5033715;28;45526;-76
2021/10/05 09:40:00;;;;;;;;;0.00;0.00;;;;;14.10;94.73;99773.41;5033879;28;45976;-77
2021/10/05 09:42:39;;;;;;;;;0.00;0.00;;;;;14.07;94.58;99790.38;5033699;28;45699;-80
2021/10/05 09:45:08;;;;;;;;;0.00;0.00;;;;;14.05;94.80;99787.03;5034267;28;45756;-79
2021/10/05 09:47:40;;;;;;;;;1.00;0.00;;;;;14.06;94.85;99798.41;5033569;28;46510;-76
2021/10/05 09:50:11;;;;;;;;;0.00;0.00;;;;;14.06;94.66;99799.25;5033852;28;45613;-77
2021/10/05 09:52:51;;;;;;;;;0.00;0.00;;;;;14.02;94.89;99795.25;5033896;28;45476;-77
2021/10/05 09:55:19;;;;;;;;;0.00;0.00;;;;;14.03;94.98;99796.91;5033475;28;45811;-76
2021/10/05 09:57:45;;;;;;;;;0.00;0.00;;;;;14.08;94.79;99804.38;5033632;28;45834;-78
2021/10/05 10:00:12;;;;;;;;;0.00;0.00;;;;;14.08;94.66;99807.84;5033404;28;46111;-79
2021/10/05 10:02:39;;;;;;;;;0.00;0.00;;;;;14.10;94.85;99803.22;5033210;28;45594;-77
2021/10/05 10:05:07;;;;;;;;;0.00;0.00;;;;;14.06;94.73;99799.25;5033890;28;45636;-78
2021/10/05 10:07:41;;;;;;;;;1.25;0.00;;;;;14.17;94.74;99819.25;5033241;28;47078;-79
2021/10/05 10:10:10;;;;;;;;;0.00;0.00;;;;;14.19;94.60;99836.59;5033579;28;46027;-78
2021/10/05 10:12:38;;;;;;;;;0.00;0.00;;;;;14.14;94.69;99833.53;5033568;28;45529;-79
2021/10/05 10:15:07;;;;;;;;;0.00;0.00;;;;;14.05;94.81;99815.19;5033842;28;45459;-78
2021/10/05 10:17:33;;;;;;;;;0.00;0.00;;;;;14.25;95.23;99846.47;5033585;28;45548;-78
2021/10/05 10:19:58;;;;;;;;;0.00;0.00;;;;;14.26;95.08;99842.88;5033510;28;46353;-78
2021/10/05 10:22:23;;;;;;;;;1.50;0.25;;;;;14.23;94.94;99842.38;5033264;28;45523;-79
2021/10/05 10:24:52;;;;;;;;;1.00;0.00;;;;;14.21;95.20;99821.44;5033406;28;45739;-77
2021/10/05 10:27:20;;;;;;;;;0.00;0.00;;;;;14.11;94.85;99798.78;5033159;28;46347;-79
2021/10/05 10:29:46;;;;;;;;;0.00;0.00;;;;;14.36;95.09;99834.09;5033404;28;45939;-77
2021/10/05 10:32:19;;;;;;;;;0.00;0.00;;;;;14.39;95.10;99844.34;5033016;28;45652;-78
2021/10/05 10:34:46;;;;;;;;;0.25;0.25;;;;;14.48;95.36;99859.22;5033590;28;45613;-77
2021/10/05 10:37:18;;;;;;;;;0.00;0.00;;;;;14.49;95.36;99863.53;5033219;28;45660;-80
2021/10/05 10:39:47;;;;;;;;;1.00;1.00;;;;;14.51;95.24;99856.31;5034500;28;45546;-77
2021/10/05 10:42:25;;;;;;;;;0.75;0.50;;;;;14.61;95.24;99875.50;5036617;28;45561;-78
2021/10/05 10:44:50;;;;;;;;;0.00;0.00;;;;;14.63;95.30;99884.06;5036613;28;45593;-79
2021/10/05 10:47:19;;;;;;;;;1.00;1.00;;;;;14.63;95.25;99874.34;5036225;28;45577;-75
2021/10/05 10:50:03;;;;;;;;;1.00;0.00;;;;;14.74;95.56;99889.09;5018467;28;46202;-78
2021/10/05 10:52:37;;;;;;;;;0.50;0.25;;;;;14.76;95.18;99888.94;5036040;28;45582;-80
2021/10/05 10:55:07;;;;;;;;;0.25;0.00;;;;;14.83;95.12;99885.56;5036102;28;45822;-76
2021/10/05 10:57:33;;;;;;;;;2.00;1.00;;;;;14.88;95.51;99890.38;5036236;28;46599;-77
2021/10/05 11:00:10;;;;;;;;;1.00;0.00;;;;;14.91;95.26;99888.25;5035970;28;46146;-78
2021/10/05 11:02:46;;;;;;;;;1.00;0.00;;;;;14.94;95.02;99906.41;5017890;28;46697;-78
2021/10/05 11:05:12;;;;;;;;;0.50;0.50;;;;;14.99;95.49;99908.59;5036468;28;45700;-79
2021/10/05 11:07:38;;;;;;;;;0.00;0.00;;;;;15.02;95.35;99919.66;5035886;28;45609;-76
2021/10/05 11:10:06;;;;;;;;;0.50;0.25;;;;;15.02;95.54;99913.53;5035818;28;47388;-82
2021/10/05 11:12:33;;;;;;;;;2.00;0.25;;;;;15.11;95.23;99916.06;5036569;28;45745;-80
2021/10/05 11:14:59;;;;;;;;;1.00;1.00;;;;;15.16;95.29;99920.91;5036067;28;45704;-79
2021/10/05 11:17:25;;;;;;;;;1.00;0.00;;;;;15.20;95.40;99927.53;5036028;28;45695;-80
2021/10/05 11:19:50;;;;;;;;;1.00;1.00;;;;;15.20;95.20;99919.59;5036153;28;46230;-81
2021/10/05 11:22:17;;;;;;;;;1.00;0.25;;;;;15.29;95.46;99920.47;5036060;28;45577;-81
2021/10/05 11:24:49;;;;;;;;;3.00;0.25;;;;;15.32;94.96;99934.19;5036345;28;45765;-80
2021/10/05 11:27:16;;;;;;;;;1.00;0.00;;;;;15.37;95.27;99944.28;5035776;28;45661;-78
2021/10/05 11:29:42;;;;;;;;;2.00;1.00;;;;;15.42;95.41;99934.91;5036488;28;45839;-80
2021/10/05 11:32:10;;;;;;;;;1.00;1.00;;;;;15.31;95.33;99907.97;5037753;28;45686;-80
2021/10/05 11:34:38;;;;;;;;;0.75;0.00;;;;;15.43;95.21;99919.91;5036995;28;45741;-77
2021/10/05 11:37:06;;;;;;;;;1.00;0.00;;;;;15.57;95.34;99934.34;5035669;28;45713;-79
2021/10/05 11:39:33;;;;;;;;;1.00;1.00;;;;;15.62;95.36;99950.56;5035773;28;46061;-78
2021/10/05 11:42:04;;;;;;;;;0.50;0.00;;;;;15.68;95.28;99939.34;5035695;28;45588;-77
2021/10/05 11:44:29;;;;;;;;;0.50;0.00;;;;;15.66;95.36;99928.94;5036014;28;45788;-79
2021/10/05 11:47:05;;;;;;;;;0.00;0.00;;;;;15.75;95.49;99935.94;5035251;28;45572;-78
2021/10/05 11:49:36;;;;;;;;;1.75;0.25;;;;;15.75;95.09;99930.66;5035415;28;45961;-78
2021/10/05 11:52:03;;;;;;;;;0.00;0.00;;;;;15.82;94.97;99984.50;5034577;28;45547;-77
2021/10/05 11:54:32;;;;;;;;;0.50;0.00;;;;;15.88;94.91;99948.69;5035092;28;45608;-78
2021/10/05 11:57:01;;;;;;;;;0.00;0.00;;;;;15.93;94.89;99968.34;5017148;28;47838;-78
2021/10/05 11:59:28;;;;;;;;;0.75;0.75;;;;;16.00;95.20;99942.13;5035202;28;46064;-78
2021/10/05 12:01:58;;;;;;;;;0.00;0.00;;;;;16.06;94.75;99954.72;5035182;28;45507;-79
2021/10/05 12:04:26;;;;;;;;;1.00;0.00;;;;;16.10;95.14;99957.84;5035429;28;45457;-77
2021/10/05 12:06:54;;;;;;;;;0.50;0.00;;;;;16.17;94.92;99978.19;5035008;28;46312;-79
2021/10/05 12:09:26;;;;;;;;;1.00;0.00;;;;;16.23;94.75;99968.81;5034793;28;46570;-78
2021/10/05 12:12:03;;;;;;;;;0.00;0.00;;;;;16.22;94.68;99948.66;5035195;28;45644;-77
2021/10/05 12:14:52;;;;;;;;;1.00;0.00;;;;;16.31;94.98;99971.47;5035123;28;45918;-77
2021/10/05 12:17:18;;;;;;;;;1.00;0.00;;;;;16.35;94.77;99968.34;5035013;28;47628;-77
2021/10/05 12:20:02;;;;;;;;;0.25;0.25;;;;;16.36;94.55;99977.09;5035373;28;45908;-78
2021/10/05 12:22:34;;;;;;;;;0.00;0.00;;;;;16.30;94.22;99962.69;5034917;28;45583;-77
2021/10/05 12:25:26;;;;;;;;;0.00;0.00;;;;;16.43;94.75;99971.97;5035227;28;45780;-77
2021/10/05 12:27:55;;;;;;;;;0.00;0.00;;;;;16.41;94.08;99947.53;5030727;28;46554;-77
2021/10/05 12:30:29;;;;;;;;;0.00;0.00;;;;;16.38;94.16;99972.47;5034816;28;46278;-81
2021/10/05 12:32:56;;;;;;;;;0.00;0.00;;;;;16.51;94.02;99979.94;5034990;28;45650;-79
2021/10/05 12:35:36;;;;;;;;;1.00;0.00;;;;;16.55;94.10;99978.63;5034905;28;45471;-79
2021/10/05 12:38:09;;;;;;;;;0.00;0.00;;;;;16.61;94.45;100012.41;5034681;28;46864;-79